Time;durP1;ratioP1;P1;durP2;ratioP2;P2;SDS_P1;SDS_P2;PMS_P1;PMS_P2;Temp;Humidity;BMP_temperature;BMP_pressure;BME280_temperature;BME280_humidity;BME280_pressure;Samples;Min_cycle;Max_cycle;Signal;HPM_P1;HPM_P2
2023/03/12 00:01:13;;;;;;;1.27;1.20;;;;;;;7.83;nan;-24035.63;5015073;28;20183;-77
2023/03/12 00:03:39;;;;;;;1.50;1.40;;;;;;;7.49;nan;-24026.28;5022701;28;20208;-70
2023/03/12 00:06:05;;;;;;;1.40;1.30;;;;;;;7.75;nan;-24033.50;5012349;28;20219;-76
2023/03/12 00:08:30;;;;;;;1.27;1.20;;;;;;;7.53;nan;-24027.28;5014121;28;20215;-73
2023/03/12 00:10:56;;;;;;;1.30;1.20;;;;;;;7.80;nan;-24034.91;5008178;28;20285;-78
2023/03/12 00:13:21;;;;;;;1.83;1.40;;;;;;;7.38;nan;-24023.16;5006098;28;20205;-75
2023/03/12 00:15:47;;;;;;;1.53;1.43;;;;;;;7.49;nan;-24026.28;5005819;28;20220;-76
2023/03/12 00:18:12;;;;;;;1.87;1.70;;;;;;;7.11;nan;-24015.50;5007017;28;20183;-76
2023/03/12 00:20:38;;;;;;;1.50;1.40;;;;;;;7.17;nan;-24017.06;5013115;28;20259;-78
2023/03/12 00:23:03;;;;;;;2.20;1.70;;;;;;;6.95;nan;-24011.09;5013660;28;20247;-74
2023/03/12 00:25:28;;;;;;;2.13;2.00;;;;;;;7.04;nan;-24013.66;4672514;28;21329;-75
2023/03/12 00:27:54;;;;;;;1.40;1.30;;;;;;;6.87;nan;-24008.84;4986511;28;20550;-75
2023/03/12 00:30:19;;;;;;;2.00;1.80;;;;;;;7.11;nan;-24015.50;5013651;28;20259;-74
2023/03/12 00:32:45;;;;;;;1.23;1.17;;;;;;;6.97;nan;-24011.66;5013085;28;20198;-74
2023/03/12 00:35:10;;;;;;;1.93;1.77;;;;;;;6.83;nan;-24007.69;5013624;28;20237;-75
2023/03/12 00:37:36;;;;;;;3.10;2.00;;;;;;;6.65;nan;-24002.72;5015484;28;20180;-71
2023/03/12 00:40:04;;;;;;;1.57;1.47;;;;;;;6.88;nan;-24009.13;5021880;28;20565;-73
2023/03/12 00:42:30;;;;;;;8.30;1.73;;;;;;;6.68;nan;-24003.44;5012310;28;20194;-76
2023/03/12 00:44:55;;;;;;;1.47;1.37;;;;;;;6.77;nan;-24006.00;5011828;28;20208;-75
2023/03/12 00:47:20;;;;;;;1.57;1.47;;;;;;;6.67;nan;-24003.16;5013202;28;20172;-74
2023/03/12 00:49:52;;;;;;;1.80;1.60;;;;;;;6.69;nan;-24003.72;5012289;28;20233;-75
2023/03/12 00:52:17;;;;;;;1.60;1.50;;;;;;;6.66;nan;-24003.00;5013155;28;20210;-72
2023/03/12 00:54:43;;;;;;;2.87;1.97;;;;;;;6.61;nan;-24001.47;5012851;28;20203;-76
2023/03/12 00:57:08;;;;;;;1.57;1.47;;;;;;;6.43;nan;-23996.34;5013130;28;20227;-74
2023/03/12 00:59:33;;;;;;;1.97;1.77;;;;;;;6.41;nan;-23995.91;5013200;28;20296;-77
2023/03/12 01:01:59;;;;;;;1.63;1.53;;;;;;;6.33;nan;-23993.66;5028432;28;20188;-76
2023/03/12 01:04:24;;;;;;;2.23;1.70;;;;;;;6.24;nan;-23990.94;5013162;28;20271;-77
2023/03/12 01:06:49;;;;;;;1.70;1.60;;;;;;;6.17;nan;-23989.25;5012829;28;20673;-74
2023/03/12 01:09:15;;;;;;;1.87;1.70;;;;;;;6.31;nan;-23992.94;5027897;28;20176;-75
2023/03/12 01:11:40;;;;;;;1.73;1.50;;;;;;;6.35;nan;-23994.06;5027998;28;20183;-73
2023/03/12 01:14:07;;;;;;;1.60;1.50;;;;;;;6.05;nan;-23985.84;5012698;28;20221;-76
2023/03/12 01:16:33;;;;;;;1.47;1.37;;;;;;;6.37;nan;-23994.66;5011566;28;20176;-74
2023/03/12 01:19:00;;;;;;;1.60;1.50;;;;;;;5.88;nan;-23981.00;5011429;28;20183;-76
2023/03/12 01:21:28;;;;;;;9.90;1.83;;;;;;;6.22;nan;-23990.66;5011444;28;20183;-75
2023/03/12 01:23:54;;;;;;;2.53;1.43;;;;;;;6.04;nan;-23985.56;5012650;28;20195;-77
2023/03/12 01:26:20;;;;;;;1.57;1.47;;;;;;;6.18;nan;-23989.53;5012755;28;20204;-76
2023/03/12 01:28:45;;;;;;;1.60;1.50;;;;;;;6.26;nan;-23991.53;5011458;28;20184;-77
2023/03/12 01:31:16;;;;;;;1.57;1.47;;;;;;;6.08;nan;-23986.56;5011262;28;20282;-74
2023/03/12 01:33:41;;;;;;;3.63;1.83;;;;;;;5.71;nan;-23976.16;5011741;28;20627;-74
2023/03/12 01:36:29;;;;;;;1.70;1.60;;;;;;;6.12;nan;-23987.81;5013960;28;20246;-74
2023/03/12 01:38:58;;;;;;;1.50;1.40;;;;;;;5.86;nan;-23980.44;5014580;28;20183;-77
2023/03/12 01:41:26;;;;;;;1.90;1.80;;;;;;;5.85;nan;-23980.00;5012728;28;20180;-73
2023/03/12 01:43:51;;;;;;;1.67;1.57;;;;;;;5.60;nan;-23973.03;5012673;28;20187;-74
2023/03/12 01:46:35;;;;;;;1.60;1.50;;;;;;;5.93;nan;-23982.44;5023079;28;20203;-73
2023/03/12 01:49:15;;;;;;;1.50;1.40;;;;;;;5.92;nan;-23982.00;5029034;28;20164;-73
2023/03/12 01:51:40;;;;;;;1.47;1.37;;;;;;;5.86;nan;-23980.28;5032568;28;20200;-73
2023/03/12 01:54:10;;;;;;;1.67;1.57;;;;;;;5.59;nan;-23972.75;5026145;28;20198;-70
2023/03/12 01:56:36;;;;;;;3.00;2.10;;;;;;;5.71;nan;-23976.31;5026588;28;20227;-76
2023/03/12 01:59:08;;;;;;;1.77;1.63;;;;;;;5.69;nan;-23975.75;5011335;28;20187;-78
2023/03/12 02:01:34;;;;;;;1.77;1.67;;;;;;;5.67;nan;-23975.19;5012181;28;20196;-73
2023/03/12 02:04:00;;;;;;;1.73;1.63;;;;;;;5.39;nan;-23967.22;5012888;28;20591;-73
2023/03/12 02:06:34;;;;;;;2.13;1.63;;;;;;;5.23;nan;-23962.66;5012610;28;20199;-74
2023/03/12 02:09:02;;;;;;;2.03;1.83;;;;;;;5.44;nan;-23968.50;5011194;28;20168;-74
2023/03/12 02:11:27;;;;;;;2.43;1.80;;;;;;;5.41;nan;-23967.78;5012957;28;20182;-74
2023/03/12 02:13:52;;;;;;;1.70;1.60;;;;;;;5.24;nan;-23963.09;5011018;28;20618;-72
2023/03/12 02:16:19;;;;;;;2.57;1.90;;;;;;;5.56;nan;-23971.91;5027902;28;20182;-74
2023/03/12 02:18:45;;;;;;;1.50;1.40;;;;;;;5.39;nan;-23967.22;5012524;28;20172;-77
2023/03/12 02:21:21;;;;;;;2.93;1.67;;;;;;;5.59;nan;-23972.91;5011080;28;20171;-75
2023/03/12 02:24:11;;;;;;;2.03;1.67;;;;;;;5.31;nan;-23965.09;5012084;28;20187;-75
2023/03/12 02:26:38;;;;;;;2.97;1.90;;;;;;;5.17;nan;-23960.97;5011807;28;20199;-76
2023/03/12 02:29:04;;;;;;;2.00;1.90;;;;;;;5.44;nan;-23968.50;5009976;28;20179;-78
2023/03/12 02:31:39;;;;;;;2.13;1.67;;;;;;;5.49;nan;-23970.06;5007184;28;20262;-76
2023/03/12 02:34:05;;;;;;;1.73;1.50;;;;;;;5.11;nan;-23959.25;5012049;28;20184;-75
2023/03/12 02:36:30;;;;;;;2.23;1.67;;;;;;;5.47;nan;-23969.34;5011824;28;20191;-78
2023/03/12 02:38:56;;;;;;;3.40;2.17;;;;;;;5.15;nan;-23960.53;5014892;28;20215;-72
2023/03/12 02:41:27;;;;;;;2.00;1.77;;;;;;;5.42;nan;-23967.94;5011845;28;20172;-73
2023/03/12 02:44:02;;;;;;;1.90;1.80;;;;;;;5.28;nan;-23964.09;5011869;28;20176;-77
2023/03/12 02:46:32;;;;;;;3.00;2.00;;;;;;;4.97;nan;-23955.28;5011843;28;20203;-76
2023/03/12 02:48:58;;;;;;;1.70;1.60;;;;;;;4.96;nan;-23955.13;5010776;28;20202;-76
2023/03/12 02:51:23;;;;;;;1.50;1.40;;;;;;;5.35;nan;-23966.09;5012179;28;20639;-76
2023/03/12 02:53:53;;;;;;;2.00;1.80;;;;;;;5.33;nan;-23965.50;5012837;28;20176;-73
2023/03/12 02:56:26;;;;;;;1.93;1.83;;;;;;;4.98;nan;-23955.69;5012388;28;20232;-73
2023/03/12 02:58:53;;;;;;;2.80;2.00;;;;;;;5.12;nan;-23959.53;5012282;28;20200;-75
2023/03/12 03:01:19;;;;;;;2.33;2.13;;;;;;;4.78;nan;-23950.00;5012044;28;20204;-74
2023/03/12 03:03:45;;;;;;;2.20;2.00;;;;;;;5.20;nan;-23961.97;5010489;28;20199;-74
2023/03/12 03:06:11;;;;;;;2.17;1.93;;;;;;;5.27;nan;-23963.81;5006966;28;20688;-73
2023/03/12 03:08:36;;;;;;;2.03;1.83;;;;;;;4.85;nan;-23952.00;5020279;28;20182;-78
2023/03/12 03:11:02;;;;;;;1.77;1.67;;;;;;;4.92;nan;-23954.00;5030416;28;20188;-76
2023/03/12 03:13:28;;;;;;;2.23;2.03;;;;;;;4.80;nan;-23950.72;5015121;28;20238;-74
2023/03/12 03:15:56;;;;;;;2.37;2.17;;;;;;;4.71;nan;-23948.03;5014861;28;20636;-77
2023/03/12 03:18:22;;;;;;;2.87;2.20;;;;;;;4.65;nan;-23946.44;5029890;28;20179;-71
2023/03/12 03:21:15;;;;;;;2.50;1.67;;;;;;;5.00;nan;-23956.25;5015218;28;20253;-77
2023/03/12 03:23:45;;;;;;;2.20;2.00;;;;;;;4.49;nan;-23941.91;5015293;28;20207;-76
2023/03/12 03:26:11;;;;;;;2.77;1.83;;;;;;;4.87;nan;-23952.72;5014772;28;20685;-73
2023/03/12 03:28:38;;;;;;;1.77;1.67;;;;;;;3.84;nan;-23923.53;5014838;28;20179;-72
2023/03/12 03:31:03;;;;;;;2.33;2.10;;;;;;;4.74;nan;-23948.88;5014916;28;20203;-79
2023/03/12 03:33:32;;;;;;;2.20;2.00;;;;;;;4.52;nan;-23942.75;5014913;28;20179;-75
2023/03/12 03:35:59;;;;;;;1.97;1.70;;;;;;;4.85;nan;-23952.00;5013145;28;20729;-75
2023/03/12 03:38:29;;;;;;;2.03;1.77;;;;;;;4.77;nan;-23949.72;5014707;28;20176;-77
2023/03/12 03:40:55;;;;;;;2.53;2.30;;;;;;;3.96;nan;-23926.94;5015066;28;20663;-77
2023/03/12 03:43:21;;;;;;;7.53;1.90;;;;;;;4.54;nan;-23943.31;5010589;28;20191;-74
2023/03/12 03:45:47;;;;;;;2.43;1.90;;;;;;;4.40;nan;-23939.47;5013485;28;20208;-71
2023/03/12 03:48:13;;;;;;;1.97;1.77;;;;;;;4.80;nan;-23950.56;5013851;28;20160;-76
2023/03/12 03:50:40;;;;;;;2.07;1.97;;;;;;;4.87;nan;-23952.72;5013987;28;20255;-74
2023/03/12 03:53:07;;;;;;;1.37;1.30;;;;;;;4.56;nan;-23943.75;5014001;28;20264;-74
2023/03/12 03:55:36;;;;;;;1.73;1.63;;;;;;;4.69;nan;-23947.59;5014070;28;20299;-76
2023/03/12 03:58:02;;;;;;;2.17;1.93;;;;;;;4.67;nan;-23946.88;5013859;28;20224;-75
2023/03/12 04:00:27;;;;;;;1.87;1.77;;;;;;;4.71;nan;-23948.03;5014176;28;20263;-72
2023/03/12 04:02:54;;;;;;;2.20;2.00;;;;;;;4.69;nan;-23947.44;5013866;28;20249;-76
2023/03/12 04:05:19;;;;;;;1.80;1.70;;;;;;;4.74;nan;-23949.00;5013791;28;20654;-79
2023/03/12 04:07:45;;;;;;;2.17;1.97;;;;;;;4.65;nan;-23946.44;5013914;28;20176;-75
2023/03/12 04:10:10;;;;;;;2.97;2.00;;;;;;;4.76;nan;-23949.44;5012332;28;20270;-72
2023/03/12 04:12:36;;;;;;;2.10;1.90;;;;;;;4.71;nan;-23948.03;5012185;28;20303;-75
2023/03/12 04:15:01;;;;;;;1.50;1.40;;;;;;;4.31;nan;-23936.78;5012207;28;20187;-75
2023/03/12 04:17:27;;;;;;;2.30;1.77;;;;;;;4.62;nan;-23945.47;5011721;28;20240;-74
2023/03/12 04:19:52;;;;;;;1.63;1.53;;;;;;;4.50;nan;-23942.19;5010011;28;20180;-74
2023/03/12 04:22:19;;;;;;;2.43;2.20;;;;;;;4.86;nan;-23952.28;5013418;28;20549;-74
2023/03/12 04:24:44;;;;;;;2.20;1.73;;;;;;;4.65;nan;-23946.31;5013397;28;20275;-73
2023/03/12 04:27:10;;;;;;;2.60;1.83;;;;;;;4.37;nan;-23938.63;5013100;28;20225;-73
2023/03/12 04:29:38;;;;;;;2.30;1.47;;;;;;;4.53;nan;-23942.91;5014124;28;20168;-73
2023/03/12 04:32:04;;;;;;;2.23;2.03;;;;;;;4.73;nan;-23948.72;5013553;28;20219;-74
2023/03/12 04:34:29;;;;;;;1.97;1.40;;;;;;;4.90;nan;-23953.56;5028676;28;20246;-78
2023/03/12 04:36:55;;;;;;;1.80;1.70;;;;;;;4.86;nan;-23952.44;5013470;28;20631;-73
2023/03/12 04:39:20;;;;;;;2.50;1.50;;;;;;;4.94;nan;-23954.41;5014936;28;20196;-73
2023/03/12 04:41:46;;;;;;;2.80;2.07;;;;;;;4.83;nan;-23951.56;5015121;28;20679;-74
2023/03/12 04:44:12;;;;;;;1.73;1.63;;;;;;;4.73;nan;-23948.59;5012291;28;20314;-77
2023/03/12 04:46:38;;;;;;;1.50;1.40;;;;;;;4.99;nan;-23955.84;5013377;28;20204;-73
2023/03/12 04:49:04;;;;;;;3.00;1.80;;;;;;;4.98;nan;-23955.56;5013466;28;20666;-72
2023/03/12 04:51:30;;;;;;;1.53;1.43;;;;;;;4.99;nan;-23956.00;5013396;28;20233;-75
2023/03/12 04:53:56;;;;;;;1.53;1.43;;;;;;;5.12;nan;-23959.69;5005949;28;20187;-76
2023/03/12 04:56:21;;;;;;;1.73;1.63;;;;;;;5.04;nan;-23957.41;5010712;28;20323;-71
2023/03/12 04:58:47;;;;;;;1.67;1.57;;;;;;;5.12;nan;-23959.69;5012716;28;20198;-75
2023/03/12 05:01:28;;;;;;;2.10;1.90;;;;;;;4.96;nan;-23955.13;5011078;28;20591;-75
2023/03/12 05:03:53;;;;;;;1.53;1.43;;;;;;;4.66;nan;-23946.59;5007767;28;20192;-75
2023/03/12 05:06:20;;;;;;;1.40;1.30;;;;;;;5.15;nan;-23960.53;5011309;28;20226;-75
2023/03/12 05:08:46;;;;;;;1.73;1.50;;;;;;;4.57;nan;-23944.03;5012562;28;20640;-75
2023/03/12 05:11:12;;;;;;;6.73;2.07;;;;;;;5.04;nan;-23957.41;5013023;28;20184;-73
2023/03/12 05:13:37;;;;;;;2.33;2.13;;;;;;;4.96;nan;-23955.13;5012863;28;20246;-76
2023/03/12 05:16:03;;;;;;;1.80;1.67;;;;;;;4.84;nan;-23951.72;5012822;28;20255;-76
2023/03/12 05:18:29;;;;;;;1.80;1.67;;;;;;;4.85;nan;-23952.00;5012537;28;20179;-74
2023/03/12 05:20:59;;;;;;;1.90;1.77;;;;;;;5.27;nan;-23963.94;5027983;28;20217;-75
2023/03/12 05:23:24;;;;;;;1.60;1.50;;;;;;;5.23;nan;-23962.81;5012500;28;20180;-79
2023/03/12 05:25:50;;;;;;;3.43;2.03;;;;;;;5.14;nan;-23960.09;5012851;28;20253;-76
2023/03/12 05:28:15;;;;;;;1.90;1.80;;;;;;;5.28;nan;-23964.22;5010909;28;20176;-73
2023/03/12 05:30:40;;;;;;;1.73;1.63;;;;;;;5.01;nan;-23956.41;5011794;28;20667;-74
2023/03/12 05:33:06;;;;;;;1.70;1.60;;;;;;;5.41;nan;-23967.66;5009521;28;20242;-72
2023/03/12 05:35:31;;;;;;;1.90;1.70;;;;;;;5.53;nan;-23971.06;5005475;28;20202;-73
2023/03/12 05:37:56;;;;;;;2.10;1.90;;;;;;;5.41;nan;-23967.66;5011727;28;20181;-72
2023/03/12 05:40:22;;;;;;;2.33;1.83;;;;;;;5.59;nan;-23972.75;5004683;28;20184;-71
2023/03/12 05:42:47;;;;;;;1.60;1.50;;;;;;;5.46;nan;-23969.22;5004941;28;20198;-74
2023/03/12 05:45:13;;;;;;;1.83;1.73;;;;;;;5.46;nan;-23969.06;5012280;28;20658;-74
2023/03/12 05:47:38;;;;;;;2.60;1.73;;;;;;;5.82;nan;-23979.31;5011943;28;20187;-73
2023/03/12 05:50:04;;;;;;;2.23;2.00;;;;;;;5.57;nan;-23972.34;5012385;28;20282;-73
2023/03/12 05:52:29;;;;;;;2.57;1.80;;;;;;;5.71;nan;-23976.16;5012261;28;20218;-75
2023/03/12 05:54:55;;;;;;;1.60;1.50;;;;;;;5.78;nan;-23978.31;5013006;28;20172;-74
2023/03/12 05:57:20;;;;;;;1.77;1.67;;;;;;;5.94;nan;-23982.56;5010358;28;20227;-75
2023/03/12 05:59:46;;;;;;;2.10;1.90;;;;;;;5.79;nan;-23978.59;5013558;28;20182;-75
2023/03/12 06:02:11;;;;;;;1.60;1.50;;;;;;;6.01;nan;-23984.69;5012365;28;20187;-77
2023/03/12 06:04:36;;;;;;;1.97;1.87;;;;;;;6.26;nan;-23991.66;5012199;28;20184;-79
2023/03/12 06:07:02;;;;;;;2.00;1.80;;;;;;;5.92;nan;-23982.16;5011902;28;20176;-77
2023/03/12 06:09:28;;;;;;;3.10;2.20;;;;;;;6.14;nan;-23988.41;5011661;28;20169;-74
2023/03/12 06:11:53;;;;;;;2.23;1.60;;;;;;;6.13;nan;-23988.13;5011530;28;20229;-77
2023/03/12 06:14:20;;;;;;;2.00;1.80;;;;;;;6.28;nan;-23992.22;5012242;28;20261;-74
2023/03/12 06:16:45;;;;;;;2.20;1.57;;;;;;;6.08;nan;-23986.69;5012106;28;20191;-77
2023/03/12 06:19:13;;;;;;;2.00;1.80;;;;;;;6.11;nan;-23987.53;5043987;28;20180;-75
2023/03/12 06:21:38;;;;;;;2.20;1.97;;;;;;;6.49;nan;-23998.19;5012376;28;20164;-76
2023/03/12 06:24:04;;;;;;;1.67;1.53;;;;;;;6.48;nan;-23997.91;5010923;28;20896;-75
2023/03/12 06:26:30;;;;;;;1.43;1.33;;;;;;;6.58;nan;-24000.75;5010781;28;20218;-80
2023/03/12 06:28:55;;;;;;;1.73;1.60;;;;;;;6.73;nan;-24004.72;5012432;28;20176;-74
2023/03/12 06:31:22;;;;;;;1.70;1.60;;;;;;;6.67;nan;-24003.16;5010111;28;20231;-77
2023/03/12 06:33:48;;;;;;;1.67;1.40;;;;;;;6.71;nan;-24004.28;5011932;28;20222;-75
2023/03/12 06:36:14;;;;;;;1.40;1.30;;;;;;;6.62;nan;-24001.75;5012058;28;20255;-79
2023/03/12 06:38:40;;;;;;;1.50;1.40;;;;;;;6.53;nan;-23999.19;5013657;28;20667;-77
2023/03/12 06:41:08;;;;;;;2.20;2.00;;;;;;;6.34;nan;-23993.94;5014132;28;20184;-74
2023/03/12 06:43:38;;;;;;;1.43;1.33;;;;;;;6.44;nan;-23996.63;5015430;28;20700;-73
2023/03/12 06:46:05;;;;;;;1.90;1.80;;;;;;;6.79;nan;-24006.56;5013754;28;20196;-77
2023/03/12 06:48:40;;;;;;;1.60;1.50;;;;;;;6.78;nan;-24006.28;5047303;28;20222;-78
2023/03/12 06:51:10;;;;;;;1.00;1.00;;;;;;;6.90;nan;-24009.69;5015341;28;20174;-75
2023/03/12 06:53:35;;;;;;;1.37;1.30;;;;;;;6.94;nan;-24010.69;5015492;28;20176;-77
2023/03/12 06:58:50;;;;;;;1.63;1.53;;;;;;;6.78;nan;-24006.28;5019718;28;20287;-76
2023/03/12 07:01:16;;;;;;;1.30;1.20;;;;;;;6.87;nan;-24008.84;5014478;28;20214;-76
2023/03/12 07:03:42;;;;;;;1.73;1.63;;;;;;;6.74;nan;-24005.00;5013609;28;20176;-77
2023/03/12 07:06:18;;;;;;;2.07;1.87;;;;;;;7.06;nan;-24014.22;5030455;28;20568;-77
2023/03/12 07:08:46;;;;;;;1.43;1.33;;;;;;;7.35;nan;-24022.16;5030670;28;20171;-73
2023/03/12 07:11:19;;;;;;;1.70;1.60;;;;;;;7.07;nan;-24014.38;5013481;28;20180;-75
2023/03/12 07:13:46;;;;;;;1.40;1.30;;;;;;;7.62;nan;-24029.81;5019267;28;20180;-76
2023/03/12 07:16:14;;;;;;;1.73;1.63;;;;;;;7.29;nan;-24020.59;5013694;28;20195;-77
2023/03/12 07:18:41;;;;;;;1.40;1.30;;;;;;;7.82;nan;-24035.47;5025828;28;20176;-74
2023/03/12 07:21:06;;;;;;;1.50;1.40;;;;;;;7.84;nan;-24035.91;5001926;28;20216;-74
2023/03/12 07:23:32;;;;;;;1.80;1.70;;;;;;;7.90;nan;-24037.63;5002194;28;20714;-74
2023/03/12 07:26:05;;;;;;;1.43;1.37;;;;;;;7.99;nan;-24040.31;5003409;28;20275;-76
2023/03/12 07:28:31;;;;;;;1.13;1.13;;;;;;;7.78;nan;-24034.34;5003059;28;20271;-74
2023/03/12 07:31:04;;;;;;;1.67;1.57;;;;;;;8.16;nan;-24044.84;5019033;28;20271;-72
2023/03/12 07:33:33;;;;;;;1.50;1.40;;;;;;;7.96;nan;-24039.44;5002099;28;20246;-74
2023/03/12 07:35:58;;;;;;;1.50;1.40;;;;;;;8.20;nan;-24046.09;5001392;28;20180;-75
2023/03/12 07:38:24;;;;;;;1.50;1.40;;;;;;;8.42;nan;-24052.34;5006286;28;20227;-73
2023/03/12 07:40:54;;;;;;;1.23;1.17;;;;;;;8.37;nan;-24050.78;5000535;28;20188;-72
2023/03/12 07:43:22;;;;;;;1.40;1.30;;;;;;;8.36;nan;-24050.50;5018091;28;20824;-72
2023/03/12 07:45:47;;;;;;;2.43;1.90;;;;;;;8.41;nan;-24051.91;5000624;28;20200;-76
2023/03/12 07:48:13;;;;;;;1.60;1.50;;;;;;;8.96;nan;-24067.19;5002676;28;20180;-71
2023/03/12 07:50:38;;;;;;;1.93;1.60;;;;;;;9.00;nan;-24068.34;5015145;28;20189;-73
2023/03/12 07:53:04;;;;;;;8.70;1.77;;;;;;;8.91;nan;-24065.78;5001540;28;20187;-70
2023/03/12 07:55:31;;;;;;;4.90;1.97;;;;;;;8.70;nan;-24059.97;5015684;28;20188;-80
2023/03/12 07:57:57;;;;;;;1.80;1.70;;;;;;;9.35;nan;-24078.09;4998254;28;20215;-81
2023/03/12 08:00:24;;;;;;;2.37;2.00;;;;;;;9.21;nan;-24074.25;4999826;28;20274;-79
2023/03/12 08:02:50;;;;;;;1.90;1.70;;;;;;;9.12;nan;-24071.72;5001444;28;20192;-71
2023/03/12 08:05:16;;;;;;;1.87;1.70;;;;;;;9.35;nan;-24078.22;4999555;28;20212;-72
2023/03/12 08:07:43;;;;;;;2.00;1.80;;;;;;;9.39;nan;-24079.34;5001787;28;20183;-70
2023/03/12 08:10:10;;;;;;;1.40;1.30;;;;;;;9.36;nan;-24078.38;5015431;28;20192;-79
2023/03/12 08:12:36;;;;;;;2.13;1.93;;;;;;;9.21;nan;-24074.41;5001246;28;20192;-78
2023/03/12 08:15:04;;;;;;;2.57;2.00;;;;;;;9.17;nan;-24073.28;5017610;28;20647;-83
2023/03/12 08:17:29;;;;;;;1.90;1.73;;;;;;;9.31;nan;-24077.25;4999870;28;20220;-70
2023/03/12 08:19:55;;;;;;;1.87;1.40;;;;;;;9.56;nan;-24084.16;4999630;28;20589;-71
2023/03/12 08:22:20;;;;;;;1.83;1.63;;;;;;;9.52;nan;-24082.91;5001375;28;20172;-81
2023/03/12 08:24:48;;;;;;;2.10;1.70;;;;;;;9.41;nan;-24079.78;5013447;28;20291;-76
2023/03/12 08:27:17;;;;;;;1.50;1.40;;;;;;;9.29;nan;-24076.53;5000635;28;20188;-78
2023/03/12 08:29:42;;;;;;;12.70;1.97;;;;;;;9.20;nan;-24074.00;5001775;28;20750;-75
2023/03/12 08:32:12;;;;;;;2.07;1.60;;;;;;;9.01;nan;-24068.75;5016167;28;20203;-76
2023/03/12 08:34:38;;;;;;;1.40;1.30;;;;;;;9.50;nan;-24082.47;5016240;28;20550;-77
2023/03/12 08:37:04;;;;;;;1.50;1.40;;;;;;;9.48;nan;-24081.75;5035207;28;20271;-78
2023/03/12 08:39:30;;;;;;;1.60;1.50;;;;;;;9.42;nan;-24080.22;5015240;28;20647;-78
2023/03/12 08:41:56;;;;;;;1.77;1.50;;;;;;;9.72;nan;-24088.69;5001713;28;20180;-77
2023/03/12 08:44:22;;;;;;;9.03;1.97;;;;;;;9.70;nan;-24088.13;4999145;28;20562;-77
2023/03/12 08:46:48;;;;;;;1.60;1.50;;;;;;;9.54;nan;-24083.47;5016238;28;20207;-76
2023/03/12 08:49:15;;;;;;;1.47;1.37;;;;;;;9.44;nan;-24080.78;5014644;28;20555;-79
2023/03/12 08:51:40;;;;;;;1.70;1.60;;;;;;;9.56;nan;-24084.03;5032246;28;20191;-77
2023/03/12 08:54:06;;;;;;;1.57;1.47;;;;;;;9.68;nan;-24087.56;5012120;28;20189;-75
2023/03/12 08:56:31;;;;;;;2.03;1.50;;;;;;;9.94;nan;-24094.63;5000066;28;20286;-65
2023/03/12 08:58:58;;;;;;;2.90;2.07;;;;;;;9.77;nan;-24090.09;4998433;28;20188;-60
2023/03/12 09:01:23;;;;;;;2.93;2.13;;;;;;;9.91;nan;-24093.78;4998854;28;20180;-61
2023/03/12 09:03:51;;;;;;;1.43;1.33;;;;;;;9.99;nan;-24096.16;4997945;28;20184;-60
2023/03/12 09:06:18;;;;;;;1.53;1.43;;;;;;;9.58;nan;-24084.72;5010729;28;20213;-60
2023/03/12 09:08:44;;;;;;;2.30;1.73;;;;;;;9.61;nan;-24085.56;5009974;28;20740;-60
2023/03/12 09:11:11;;;;;;;1.60;1.50;;;;;;;9.97;nan;-24095.47;5007845;28;20234;-61
2023/03/12 09:13:38;;;;;;;1.70;1.60;;;;;;;10.10;nan;-24099.28;5012272;28;20274;-59
2023/03/12 09:16:04;;;;;;;2.20;1.70;;;;;;;10.15;nan;-24100.53;5012181;28;20184;-62
2023/03/12 09:18:30;;;;;;;1.80;1.70;;;;;;;10.55;nan;-24111.84;5012074;28;20195;-60
2023/03/12 09:20:56;;;;;;;3.25;2.20;;;;;;;10.73;nan;-24116.78;5011812;28;20180;-61
2023/03/12 09:23:22;;;;;;;1.63;1.52;;;;;;;10.94;nan;-24122.56;5012570;28;20172;-61
2023/03/12 09:25:48;;;;;;;1.67;1.58;;;;;;;10.97;nan;-24123.41;5012322;28;20208;-59
2023/03/12 09:28:14;;;;;;;6.32;2.53;;;;;;;11.02;nan;-24124.97;5012025;28;20598;-59
2023/03/12 09:30:41;;;;;;;1.80;1.70;;;;;;;10.74;nan;-24117.06;5012215;28;20171;-59
2023/03/12 09:33:06;;;;;;;2.45;1.92;;;;;;;10.92;nan;-24122.00;5011965;28;20220;-59
2023/03/12 09:35:32;;;;;;;5.47;2.05;;;;;;;10.90;nan;-24121.56;5011901;28;20678;-60
2023/03/12 09:37:58;;;;;;;1.77;1.67;;;;;;;11.03;nan;-24125.25;5010738;28;20176;-58
2023/03/12 09:40:28;;;;;;;2.17;1.75;;;;;;;10.36;nan;-24106.47;5011840;28;20600;-58
2023/03/12 09:42:59;;;;;;;1.85;1.67;;;;;;;10.30;nan;-24104.78;5011767;28;20176;-59
2023/03/12 09:45:27;;;;;;;5.85;3.03;;;;;;;10.82;nan;-24119.19;5011808;28;20195;-58
2023/03/12 09:47:59;;;;;;;2.05;1.90;;;;;;;10.56;nan;-24111.97;5012017;28;20172;-58
2023/03/12 09:50:38;;;;;;;1.73;1.58;;;;;;;10.69;nan;-24115.50;5012359;28;20194;-60
2023/03/12 09:53:04;;;;;;;2.17;1.90;;;;;;;11.10;nan;-24126.94;5012484;28;20178;-59
2023/03/12 09:55:37;;;;;;;6.10;1.67;;;;;;;11.25;nan;-24131.31;5010775;28;20270;-59
2023/03/12 09:58:02;;;;;;;1.70;1.60;;;;;;;11.10;nan;-24126.94;5011170;28;20278;-58
2023/03/12 10:00:34;;;;;;;2.58;1.80;;;;;;;10.80;nan;-24118.63;5009706;28;20180;-58
2023/03/12 10:03:11;;;;;;;1.80;1.70;;;;;;;10.94;nan;-24122.56;5011021;28;20187;-59
2023/03/12 10:06:12;;;;;;;1.95;1.70;;;;;;;11.09;nan;-24126.78;5006346;28;20208;-60
2023/03/12 10:09:01;;;;;;;1.90;1.60;;;;;;;11.10;nan;-24127.06;5010970;28;20192;-59
2023/03/12 10:11:33;;;;;;;1.80;1.60;;;;;;;10.73;nan;-24116.63;5011597;28;20275;-59
2023/03/12 10:14:27;;;;;;;2.40;1.55;;;;;;;10.92;nan;-24122.13;5043873;28;20253;-60
2023/03/12 10:17:13;;;;;;;1.92;1.60;;;;;;;10.55;nan;-24111.84;4995855;28;20180;-59
2023/03/12 10:19:59;;;;;;;1.88;1.50;;;;;;;10.59;nan;-24112.97;4995045;28;20257;-60
2023/03/12 10:22:55;;;;;;;2.13;1.65;;;;;;;10.65;nan;-24114.53;4994768;28;20555;-59
2023/03/12 10:25:27;;;;;;;1.63;1.42;;;;;;;10.92;nan;-24122.00;4995193;28;20223;-58
2023/03/12 10:27:58;;;;;;;1.70;1.60;;;;;;;11.13;nan;-24127.91;4995463;28;20165;-59
2023/03/12 10:30:27;;;;;;;1.60;1.50;;;;;;;11.26;nan;-24131.44;4995716;28;20168;-59
2023/03/12 10:33:00;;;;;;;1.65;1.55;;;;;;;10.94;nan;-24122.69;4995558;28;20169;-59
2023/03/12 10:35:29;;;;;;;1.58;1.48;;;;;;;11.23;nan;-24130.75;4996061;28;20546;-59
2023/03/12 10:38:11;;;;;;;1.95;1.60;;;;;;;10.88;nan;-24120.88;4995155;28;20162;-70
2023/03/12 10:40:39;;;;;;;1.70;1.60;;;;;;;10.81;nan;-24118.91;4997147;28;20177;-64
2023/03/12 10:43:08;;;;;;;1.48;1.38;;;;;;;10.39;nan;-24107.31;4995605;28;20176;-71
2023/03/12 10:45:49;;;;;;;2.53;2.10;;;;;;;10.46;nan;-24109.31;5005021;28;20203;-69
2023/03/12 10:48:20;;;;;;;5.85;1.70;;;;;;;10.19;nan;-24101.81;5015249;28;20175;-70
2023/03/12 10:51:10;;;;;;;1.95;1.52;;;;;;;10.04;nan;-24097.44;5015124;28;20180;-68
2023/03/12 10:53:38;;;;;;;1.80;1.70;;;;;;;10.78;nan;-24118.03;5015402;28;20179;-69
2023/03/12 10:56:04;;;;;;;1.42;1.33;;;;;;;10.61;nan;-24113.53;5014682;28;20190;-70
2023/03/12 10:58:38;;;;;;;1.40;1.30;;;;;;;10.86;nan;-24120.44;5014779;28;20678;-68
2023/03/12 11:01:14;;;;;;;1.40;1.30;;;;;;;11.12;nan;-24127.50;5014962;28;20233;-60
2023/03/12 11:03:41;;;;;;;1.58;1.48;;;;;;;11.11;nan;-24127.22;5015069;28;20192;-62
2023/03/12 11:06:14;;;;;;;1.85;1.50;;;;;;;10.97;nan;-24123.53;5014732;28;20250;-61
2023/03/12 11:08:41;;;;;;;2.47;1.92;;;;;;;10.83;nan;-24119.47;5014640;28;20165;-63
2023/03/12 11:11:06;;;;;;;1.60;1.50;;;;;;;11.33;nan;-24133.56;5014714;28;20210;-62
2023/03/12 11:13:37;;;;;;;1.70;1.60;;;;;;;10.89;nan;-24121.28;5014204;28;20196;-61
2023/03/12 11:16:15;;;;;;;1.73;1.63;;;;;;;11.32;nan;-24133.28;5014646;28;20262;-62
2023/03/12 11:18:55;;;;;;;2.85;1.95;;;;;;;11.18;nan;-24129.34;5014795;28;20178;-68
2023/03/12 11:21:20;;;;;;;1.80;1.70;;;;;;;11.44;nan;-24136.66;5008162;28;20226;-63
2023/03/12 11:24:09;;;;;;;1.50;1.40;;;;;;;11.49;nan;-24138.06;5008151;28;20218;-68
2023/03/12 11:26:52;;;;;;;1.70;1.60;;;;;;;11.46;nan;-24137.22;5002478;28;20208;-69
2023/03/12 11:29:30;;;;;;;2.35;2.08;;;;;;;11.26;nan;-24131.44;5003600;28;20172;-69
2023/03/12 11:32:12;;;;;;;1.67;1.40;;;;;;;10.96;nan;-24123.13;5000697;28;20185;-69
2023/03/12 11:34:39;;;;;;;1.63;1.52;;;;;;;11.28;nan;-24132.16;5002230;28;20181;-70
2023/03/12 11:37:29;;;;;;;1.70;1.52;;;;;;;11.49;nan;-24138.06;5015245;28;20175;-69
2023/03/12 11:39:56;;;;;;;1.55;1.45;;;;;;;11.17;nan;-24128.91;5006344;28;20188;-70
2023/03/12 11:43:19;;;;;;;1.58;1.48;;;;;;;11.10;nan;-24126.94;5001883;28;20256;-69
2023/03/12 11:46:03;;;;;;;1.50;1.40;;;;;;;11.30;nan;-24132.56;5016431;28;20211;-71
2023/03/12 11:49:01;;;;;;;1.63;1.40;;;;;;;11.38;nan;-24134.81;5018611;28;20279;-70
2023/03/12 11:51:51;;;;;;;1.80;1.60;;;;;;;11.42;nan;-24136.09;5001774;28;20200;-70
2023/03/12 11:54:49;;;;;;;1.80;1.52;;;;;;;11.36;nan;-24134.41;4997324;28;20210;-69
2023/03/12 11:57:56;;;;;;;2.47;1.80;;;;;;;11.29;nan;-24132.28;5012243;28;20236;-68
2023/03/12 12:00:32;;;;;;;1.40;1.30;;;;;;;10.98;nan;-24123.84;4999675;28;20176;-69